Terminal Aerodrome Forecast
Issued by NWS Pueblo, CO

Home | Current Version | Previous Version | Text Only | Print | Product List | Glossary On
Versions: 1 2 3 4 5 6 7 8 9 10 11 12 13 14 15 16 17 18 19 20 21 22 23 24 25 26 27 28 29 30 31 32 33 34
000
FTUS45 KPUB 181128
TAFCOS
TAF
KCOS 181128Z 1812/1912 35006KT 5SM BR SCT010 BKN025
     FM181500 VRB05KT P6SM SCT020 BKN060
     FM181800 16007KT P6SM SCT020 BKN080
     FM190100 13006KT P6SM VCSH SCT010 BKN025
     FM190600 VRB05KT 3SM BR BKN010
     FM191000 03005KT P6SM SCT010=

USA.gov is the U.S. government's official web portal to all federal, state and local government web resources and services.